Time;durP1;ratioP1;P1;durP2;ratioP2;P2;SDS_P1;SDS_P2;PMS_P1;PMS_P2;Temp;Humidity;BMP_temperature;BMP_pressure;BME280_temperature;BME280_humidity;BME280_pressure;Samples;Min_cycle;Max_cycle;Signal;HPM_P1;HPM_P2
2022/03/11 00:02:06;;;;;;;24.83;13.73;;;;;;;;;;5106003;28;20032;-64
2022/03/11 00:04:31;;;;;;;25.83;14.20;;;;;;;;;;5094280;28;20016;-63
2022/03/11 00:06:57;;;;;;;23.27;13.85;;;;;;;;;;5094996;28;20040;-66
2022/03/11 00:09:23;;;;;;;28.38;16.05;;;;;;;;;;5094978;28;20055;-65
2022/03/11 00:11:49;;;;;;;33.97;15.65;;;;;;;;;;5094796;28;20081;-68
2022/03/11 00:14:14;;;;;;;28.55;15.82;;;;;;;;;;5094717;28;20089;-69
2022/03/11 00:16:40;;;;;;;30.98;17.63;;;;;;;;;;5094335;28;20497;-63
2022/03/11 00:19:06;;;;;;;30.10;15.10;;;;;;;;;;5094237;28;20024;-65
2022/03/11 00:21:33;;;;;;;23.10;14.30;;;;;;;;;;5094409;28;20115;-70
2022/03/11 00:23:59;;;;;;;22.00;13.30;;;;;;;;;;5094709;28;20103;-69
2022/03/11 00:26:25;;;;;;;20.38;12.32;;;;;;;;;;5094476;28;20032;-72
2022/03/11 00:28:51;;;;;;;19.42;9.98;;;;;;;;;;5094185;28;20024;-65
2022/03/11 00:31:17;;;;;;;14.45;8.60;;;;;;;;;;5092859;28;20044;-64
2022/03/11 00:33:43;;;;;;;11.60;6.78;;;;;;;;;;5094302;28;20470;-68
2022/03/11 00:36:09;;;;;;;9.93;5.72;;;;;;;;;;5094245;28;20488;-70
2022/03/11 00:38:35;;;;;;;11.55;6.75;;;;;;;;;;5094268;28;20024;-69
2022/03/11 00:41:02;;;;;;;7.18;4.90;;;;;;;;;;5094292;28;20466;-66
2022/03/11 00:43:27;;;;;;;8.45;5.47;;;;;;;;;;5093972;28;20102;-65
2022/03/11 00:45:55;;;;;;;8.98;5.55;;;;;;;;;;5094244;28;20067;-67
2022/03/11 00:48:23;;;;;;;7.68;4.60;;;;;;;;;;5094120;28;20400;-67
2022/03/11 00:50:50;;;;;;;7.82;4.70;;;;;;;;;;5093860;28;20044;-67
2022/03/11 00:53:15;;;;;;;7.85;5.07;;;;;;;;;;5093976;28;20089;-70
2022/03/11 00:55:41;;;;;;;8.05;5.03;;;;;;;;;;5094022;28;20032;-67
2022/03/11 00:58:07;;;;;;;8.38;4.95;;;;;;;;;;5094065;28;20063;-67
2022/03/11 01:00:33;;;;;;;7.93;4.88;;;;;;;;;;5093686;28;20032;-65
2022/03/11 01:02:59;;;;;;;11.50;6.13;;;;;;;;;;5093529;28;20062;-64
2022/03/11 01:05:25;;;;;;;10.65;6.88;;;;;;;;;;5092154;28;20078;-64
2022/03/11 01:07:51;;;;;;;9.73;5.25;;;;;;;;;;5093579;28;20488;-64
2022/03/11 01:10:18;;;;;;;9.40;6.32;;;;;;;;;;5093351;28;20039;-70
2022/03/11 01:12:44;;;;;;;11.35;6.45;;;;;;;;;;5093042;28;20686;-66
2022/03/11 01:15:10;;;;;;;9.38;5.93;;;;;;;;;;5092407;28;20047;-65
2022/03/11 01:17:36;;;;;;;11.52;5.18;;;;;;;;;;5093060;28;20072;-66
2022/03/11 01:20:06;;;;;;;9.48;5.53;;;;;;;;;;5093531;28;20040;-68
2022/03/11 01:22:32;;;;;;;8.38;5.32;;;;;;;;;;5093357;28;20024;-65
2022/03/11 01:24:58;;;;;;;8.27;5.22;;;;;;;;;;5093646;28;20064;-70
2022/03/11 01:27:25;;;;;;;9.60;5.97;;;;;;;;;;5093228;28;20101;-67
2022/03/11 01:29:51;;;;;;;12.93;6.63;;;;;;;;;;5093476;28;20422;-64
2022/03/11 01:32:17;;;;;;;11.55;6.25;;;;;;;;;;5092849;28;20030;-64
2022/03/11 01:34:43;;;;;;;10.88;6.38;;;;;;;;;;5093447;28;20024;-65
2022/03/11 01:37:09;;;;;;;10.20;6.53;;;;;;;;;;5093180;28;20028;-69
2022/03/11 01:39:37;;;;;;;11.95;6.70;;;;;;;;;;5092913;28;20115;-65
2022/03/11 01:42:03;;;;;;;12.63;7.72;;;;;;;;;;5093296;28;20116;-66
2022/03/11 01:44:28;;;;;;;13.15;8.30;;;;;;;;;;5093186;28;20371;-64
2022/03/11 01:46:55;;;;;;;12.48;7.65;;;;;;;;;;5092893;28;20035;-70
2022/03/11 01:49:22;;;;;;;12.32;7.30;;;;;;;;;;5092641;28;20051;-71
2022/03/11 01:51:47;;;;;;;11.63;6.95;;;;;;;;;;5092447;28;20054;-65
2022/03/11 01:54:14;;;;;;;12.52;7.30;;;;;;;;;;5093018;28;20035;-71
2022/03/11 01:56:40;;;;;;;10.43;7.07;;;;;;;;;;5093081;28;20055;-64
2022/03/11 01:59:08;;;;;;;10.93;7.03;;;;;;;;;;5092697;28;20111;-65
2022/03/11 02:01:34;;;;;;;10.00;6.47;;;;;;;;;;5092464;28;20030;-64
2022/03/11 02:04:00;;;;;;;8.18;5.38;;;;;;;;;;5092560;28;20047;-65
2022/03/11 02:06:26;;;;;;;9.13;6.18;;;;;;;;;;5092348;28;20052;-65
2022/03/11 02:08:54;;;;;;;11.45;6.35;;;;;;;;;;5092344;28;20028;-66
2022/03/11 02:11:20;;;;;;;10.10;6.07;;;;;;;;;;5092568;28;20448;-68
2022/03/11 02:13:51;;;;;;;20.65;7.20;;;;;;;;;;5092405;28;20043;-64
2022/03/11 02:16:19;;;;;;;13.20;5.63;;;;;;;;;;5091595;28;20438;-65
2022/03/11 02:18:46;;;;;;;13.27;8.13;;;;;;;;;;5092462;28;20051;-68
2022/03/11 02:21:13;;;;;;;17.10;8.50;;;;;;;;;;5092430;28;20028;-69
2022/03/11 02:24:09;;;;;;;16.25;8.18;;;;;;;;;;5092134;28;20090;-63
2022/03/11 02:26:35;;;;;;;29.02;10.32;;;;;;;;;;5083302;28;20056;-67
2022/03/11 02:29:03;;;;;;;19.75;9.27;;;;;;;;;;5092602;28;20054;-64
2022/03/11 02:31:30;;;;;;;13.55;8.85;;;;;;;;;;5092222;28;20092;-72
2022/03/11 02:33:57;;;;;;;13.60;8.55;;;;;;;;;;5092096;28;20032;-70
2022/03/11 02:36:24;;;;;;;12.77;8.25;;;;;;;;;;5091251;28;20408;-68
2022/03/11 02:38:50;;;;;;;14.98;8.70;;;;;;;;;;5092360;28;20023;-64
2022/03/11 02:41:16;;;;;;;14.00;8.35;;;;;;;;;;5092543;28;20367;-65
2022/03/11 02:43:42;;;;;;;13.95;8.68;;;;;;;;;;5092048;28;20024;-71
2022/03/11 02:46:09;;;;;;;14.40;8.85;;;;;;;;;;5091645;28;20043;-71
2022/03/11 02:48:35;;;;;;;12.73;7.95;;;;;;;;;;5091481;28;20107;-70
2022/03/11 02:51:01;;;;;;;15.93;8.07;;;;;;;;;;5091582;28;20107;-66
2022/03/11 02:53:27;;;;;;;14.75;7.82;;;;;;;;;;5088653;28;20435;-69
2022/03/11 02:55:53;;;;;;;15.20;8.55;;;;;;;;;;5071414;28;20113;-69
2022/03/11 02:58:19;;;;;;;15.52;9.77;;;;;;;;;;5071700;28;20446;-68
2022/03/11 03:00:45;;;;;;;13.90;8.93;;;;;;;;;;5071914;28;20064;-69
2022/03/11 03:03:11;;;;;;;20.10;10.10;;;;;;;;;;5071923;28;20501;-70
2022/03/11 03:05:37;;;;;;;20.20;9.57;;;;;;;;;;5071057;28;20060;-67
2022/03/11 03:08:06;;;;;;;14.43;9.23;;;;;;;;;;5071554;28;20028;-64
2022/03/11 03:10:32;;;;;;;18.33;9.70;;;;;;;;;;5071352;28;20055;-71
2022/03/11 03:12:58;;;;;;;15.80;9.60;;;;;;;;;;5071365;28;20517;-70
2022/03/11 03:15:25;;;;;;;17.58;9.77;;;;;;;;;;5071623;28;20112;-65
2022/03/11 03:17:51;;;;;;;16.65;9.48;;;;;;;;;;5071555;28;20435;-67
2022/03/11 03:20:17;;;;;;;18.42;9.52;;;;;;;;;;5071747;28;20041;-72
2022/03/11 03:22:43;;;;;;;16.80;8.68;;;;;;;;;;5071482;28;20115;-70
2022/03/11 03:25:09;;;;;;;23.50;8.55;;;;;;;;;;5071582;28;20394;-69
2022/03/11 03:27:36;;;;;;;14.15;7.97;;;;;;;;;;5071363;28;20032;-63
2022/03/11 03:30:04;;;;;;;12.73;7.93;;;;;;;;;;5071687;28;20028;-71
2022/03/11 03:32:30;;;;;;;14.65;8.35;;;;;;;;;;5071420;28;20032;-68
2022/03/11 03:34:56;;;;;;;12.25;7.63;;;;;;;;;;5071394;28;20150;-71
2022/03/11 03:37:22;;;;;;;16.02;8.18;;;;;;;;;;5071553;28;20542;-69
2022/03/11 03:39:48;;;;;;;12.00;6.78;;;;;;;;;;5055665;28;20041;-65
2022/03/11 03:42:13;;;;;;;13.48;8.00;;;;;;;;;;5055183;28;20050;-66
2022/03/11 03:44:39;;;;;;;14.77;7.95;;;;;;;;;;5055031;28;20033;-68
2022/03/11 03:47:05;;;;;;;14.00;8.10;;;;;;;;;;5054700;28;20076;-64
2022/03/11 03:49:31;;;;;;;13.85;7.00;;;;;;;;;;5055078;28;20510;-69
2022/03/11 03:51:57;;;;;;;17.83;7.88;;;;;;;;;;5054540;28;20049;-69
2022/03/11 03:54:22;;;;;;;14.48;7.53;;;;;;;;;;5054936;28;20433;-66
2022/03/11 03:56:49;;;;;;;17.88;8.30;;;;;;;;;;5055208;28;20036;-70
2022/03/11 03:59:15;;;;;;;28.50;9.45;;;;;;;;;;5053796;28;20037;-69
2022/03/11 04:01:43;;;;;;;20.25;11.00;;;;;;;;;;5055028;28;20052;-68
2022/03/11 04:04:11;;;;;;;35.60;12.60;;;;;;;;;;5057775;28;20467;-70
2022/03/11 04:06:38;;;;;;;20.17;12.38;;;;;;;;;;5074723;28;20020;-69
2022/03/11 04:09:06;;;;;;;24.55;13.77;;;;;;;;;;5074271;28;20081;-72
2022/03/11 04:11:32;;;;;;;22.95;12.13;;;;;;;;;;5074229;28;20051;-72
2022/03/11 04:13:58;;;;;;;20.10;12.73;;;;;;;;;;5073841;28;20067;-72
2022/03/11 04:16:25;;;;;;;25.25;13.43;;;;;;;;;;5073014;28;20056;-64
2022/03/11 04:18:51;;;;;;;22.05;11.00;;;;;;;;;;5074470;28;20028;-64
2022/03/11 04:21:18;;;;;;;22.15;12.68;;;;;;;;;;5074358;28;20039;-69
2022/03/11 04:23:45;;;;;;;21.25;12.80;;;;;;;;;;5074219;28;20043;-66
2022/03/11 04:26:11;;;;;;;18.58;11.68;;;;;;;;;;5074201;28;20151;-64
2022/03/11 04:28:37;;;;;;;23.25;12.18;;;;;;;;;;5074040;28;20107;-65
2022/03/11 04:31:09;;;;;;;22.63;11.75;;;;;;;;;;5074970;28;20033;-67
2022/03/11 04:33:36;;;;;;;25.17;13.15;;;;;;;;;;5074057;28;20111;-73
2022/03/11 04:36:03;;;;;;;26.13;14.13;;;;;;;;;;5073599;28;20016;-69
2022/03/11 04:38:30;;;;;;;24.15;14.07;;;;;;;;;;5072330;28;20032;-69
2022/03/11 04:40:56;;;;;;;22.90;12.43;;;;;;;;;;5073479;28;20035;-67
2022/03/11 04:43:22;;;;;;;23.67;12.80;;;;;;;;;;5073061;28;20028;-65
2022/03/11 04:45:48;;;;;;;25.88;12.70;;;;;;;;;;5073758;28;20082;-71
2022/03/11 04:48:14;;;;;;;27.73;14.05;;;;;;;;;;5071182;28;20044;-67
2022/03/11 04:50:40;;;;;;;20.98;12.82;;;;;;;;;;5073170;28;20071;-71
2022/03/11 04:53:06;;;;;;;25.90;14.52;;;;;;;;;;5073383;28;20025;-69
2022/03/11 04:55:32;;;;;;;24.08;13.65;;;;;;;;;;5073055;28;20074;-68
2022/03/11 04:57:58;;;;;;;25.58;15.02;;;;;;;;;;5073049;28;20113;-68
2022/03/11 05:00:25;;;;;;;26.65;15.63;;;;;;;;;;5072824;28;20458;-71
2022/03/11 05:02:51;;;;;;;26.42;14.90;;;;;;;;;;5072978;28;20123;-69
2022/03/11 05:05:18;;;;;;;23.30;14.18;;;;;;;;;;5073042;28;20172;-67
2022/03/11 05:07:44;;;;;;;25.63;14.50;;;;;;;;;;5066392;28;20036;-68
2022/03/11 05:10:14;;;;;;;27.83;14.43;;;;;;;;;;5067393;28;20021;-72
2022/03/11 05:12:40;;;;;;;24.70;14.40;;;;;;;;;;5072856;28;20101;-70
2022/03/11 05:15:07;;;;;;;22.23;12.93;;;;;;;;;;5072186;28;20424;-66
2022/03/11 05:17:33;;;;;;;28.60;14.30;;;;;;;;;;5070624;28;20394;-71
2022/03/11 05:19:59;;;;;;;25.38;14.55;;;;;;;;;;5072224;28;20020;-71
2022/03/11 05:22:26;;;;;;;25.60;13.30;;;;;;;;;;5072252;28;20043;-74
2022/03/11 05:24:51;;;;;;;23.65;13.48;;;;;;;;;;5071956;28;20017;-72
2022/03/11 05:27:17;;;;;;;28.33;13.40;;;;;;;;;;5072860;28;20208;-75
2022/03/11 05:29:43;;;;;;;27.05;14.05;;;;;;;;;;5073295;28;20047;-75
2022/03/11 05:32:10;;;;;;;28.23;14.68;;;;;;;;;;5078687;28;20051;-71
2022/03/11 05:34:39;;;;;;;25.85;14.30;;;;;;;;;;5077497;28;20046;-73
2022/03/11 05:37:06;;;;;;;24.55;13.20;;;;;;;;;;5065492;28;20083;-74
2022/03/11 05:39:32;;;;;;;27.60;12.73;;;;;;;;;;5059298;28;20035;-73
2022/03/11 05:41:58;;;;;;;32.13;13.32;;;;;;;;;;5072877;28;20052;-75
2022/03/11 05:44:24;;;;;;;26.92;12.63;;;;;;;;;;5072889;28;20477;-76
2022/03/11 05:46:52;;;;;;;21.85;12.07;;;;;;;;;;5073080;28;20521;-76
2022/03/11 05:49:18;;;;;;;19.17;10.90;;;;;;;;;;5072685;28;20107;-77
2022/03/11 05:51:44;;;;;;;17.60;11.57;;;;;;;;;;5068228;28;20460;-74
2022/03/11 05:54:10;;;;;;;25.23;13.70;;;;;;;;;;5077225;28;20466;-77
2022/03/11 05:56:37;;;;;;;22.60;12.80;;;;;;;;;;5082100;28;20039;-76
2022/03/11 05:59:05;;;;;;;23.33;13.85;;;;;;;;;;5072546;28;20398;-75
2022/03/11 06:01:34;;;;;;;20.10;12.90;;;;;;;;;;5071474;28;20046;-75
2022/03/11 06:04:04;;;;;;;34.63;14.90;;;;;;;;;;5072343;28;20028;-76
2022/03/11 06:06:30;;;;;;;25.40;14.73;;;;;;;;;;5072559;28;20082;-75
2022/03/11 06:08:56;;;;;;;30.83;13.85;;;;;;;;;;5070957;28;20115;-75
2022/03/11 06:11:23;;;;;;;21.38;13.00;;;;;;;;;;5072154;28;20036;-75
2022/03/11 06:13:49;;;;;;;29.35;14.98;;;;;;;;;;5072390;28;20021;-73
2022/03/11 06:16:15;;;;;;;51.65;26.02;;;;;;;;;;5072545;28;20038;-75
2022/03/11 06:18:41;;;;;;;35.80;15.73;;;;;;;;;;5072064;28;20029;-76
2022/03/11 06:21:08;;;;;;;32.40;15.13;;;;;;;;;;5072425;28;20036;-74
2022/03/11 06:23:35;;;;;;;29.88;12.70;;;;;;;;;;5071848;28;20022;-73
2022/03/11 06:26:02;;;;;;;18.50;10.02;;;;;;;;;;5072427;28;20443;-74
2022/03/11 06:28:28;;;;;;;22.27;11.50;;;;;;;;;;5072844;28;20052;-72
2022/03/11 06:30:54;;;;;;;22.77;10.60;;;;;;;;;;5073319;28;20032;-75
2022/03/11 06:33:22;;;;;;;18.83;10.50;;;;;;;;;;5069190;28;20074;-72
2022/03/11 06:35:49;;;;;;;14.27;9.25;;;;;;;;;;5072842;28;20382;-78
2022/03/11 06:38:15;;;;;;;13.80;8.85;;;;;;;;;;5066692;28;20021;-75
2022/03/11 06:40:45;;;;;;;16.95;10.20;;;;;;;;;;5052175;28;20043;-71
2022/03/11 06:43:11;;;;;;;16.58;9.82;;;;;;;;;;5051911;28;20395;-74
2022/03/11 06:45:37;;;;;;;18.30;9.27;;;;;;;;;;5052466;28;20438;-73
2022/03/11 06:48:04;;;;;;;14.23;8.73;;;;;;;;;;5052479;28;20025;-74
2022/03/11 06:50:30;;;;;;;21.25;9.80;;;;;;;;;;5059577;28;20032;-77
2022/03/11 06:52:56;;;;;;;18.17;9.73;;;;;;;;;;5072067;28;20041;-75
2022/03/11 06:55:22;;;;;;;16.92;9.30;;;;;;;;;;5072339;28;20032;-72
2022/03/11 06:57:48;;;;;;;22.60;11.50;;;;;;;;;;5071989;28;20032;-72
2022/03/11 07:00:14;;;;;;;20.80;12.00;;;;;;;;;;5072177;28;20037;-77
2022/03/11 07:02:41;;;;;;;24.00;11.27;;;;;;;;;;5077667;28;20024;-72
2022/03/11 07:05:07;;;;;;;19.42;9.68;;;;;;;;;;5091786;28;20040;-74
2022/03/11 07:07:33;;;;;;;20.33;11.63;;;;;;;;;;5090555;28;20336;-78
2022/03/11 07:10:04;;;;;;;15.82;8.70;;;;;;;;;;5092261;28;20036;-76
2022/03/11 07:12:31;;;;;;;24.02;11.10;;;;;;;;;;5092383;28;20546;-78
2022/03/11 07:15:03;;;;;;;16.80;9.73;;;;;;;;;;5095691;28;20503;-75
2022/03/11 07:17:29;;;;;;;15.23;9.52;;;;;;;;;;5095668;28;20119;-75
2022/03/11 07:19:55;;;;;;;16.35;8.55;;;;;;;;;;5096158;28;20095;-75
2022/03/11 07:22:21;;;;;;;14.15;9.07;;;;;;;;;;5096142;28;20036;-75
2022/03/11 07:24:46;;;;;;;13.57;7.65;;;;;;;;;;5093703;28;20024;-75
2022/03/11 07:27:13;;;;;;;12.55;7.80;;;;;;;;;;5075534;28;20474;-72
2022/03/11 07:29:39;;;;;;;10.75;7.45;;;;;;;;;;5075797;28;20091;-77
2022/03/11 07:32:06;;;;;;;12.90;7.72;;;;;;;;;;5075212;28;20059;-74
2022/03/11 07:34:32;;;;;;;12.48;7.70;;;;;;;;;;5074157;28;20029;-72
2022/03/11 07:36:57;;;;;;;14.88;7.93;;;;;;;;;;5075188;28;20485;-78
2022/03/11 07:39:23;;;;;;;14.32;7.93;;;;;;;;;;5075766;28;20103;-72
2022/03/11 07:41:49;;;;;;;11.10;7.43;;;;;;;;;;5075502;28;20045;-78
2022/03/11 07:44:16;;;;;;;12.05;7.18;;;;;;;;;;5075264;28;20063;-77
2022/03/11 07:46:42;;;;;;;15.48;7.28;;;;;;;;;;5075227;28;20040;-73
2022/03/11 07:49:08;;;;;;;10.48;6.68;;;;;;;;;;5074857;28;20024;-75
2022/03/11 07:51:34;;;;;;;15.73;8.02;;;;;;;;;;5074681;28;20139;-78
2022/03/11 07:54:00;;;;;;;21.98;8.55;;;;;;;;;;5075312;28;20151;-77
2022/03/11 07:56:26;;;;;;;9.43;5.85;;;;;;;;;;5074979;28;20492;-74
2022/03/11 07:58:54;;;;;;;10.52;6.20;;;;;;;;;;5074605;28;20029;-78
2022/03/11 08:01:20;;;;;;;8.98;5.72;;;;;;;;;;5074933;28;20024;-76
2022/03/11 08:03:45;;;;;;;9.25;5.10;;;;;;;;;;5075173;28;20028;-73
2022/03/11 08:06:11;;;;;;;15.27;6.43;;;;;;;;;;5072602;28;20036;-76
2022/03/11 08:08:38;;;;;;;10.25;6.00;;;;;;;;;;5075200;28;20056;-78
2022/03/11 08:11:05;;;;;;;8.25;5.57;;;;;;;;;;5074608;28;20443;-73
2022/03/11 08:13:31;;;;;;;9.40;5.43;;;;;;;;;;5074688;28;20025;-78
2022/03/11 08:15:57;;;;;;;8.95;5.95;;;;;;;;;;5074473;28;20070;-76
2022/03/11 08:18:23;;;;;;;10.00;4.88;;;;;;;;;;5074407;28;20032;-76
2022/03/11 08:20:49;;;;;;;8.75;5.30;;;;;;;;;;5074596;28;20124;-75
2022/03/11 08:23:15;;;;;;;11.65;5.70;;;;;;;;;;5074044;28;20086;-74
2022/03/11 08:25:41;;;;;;;10.63;5.45;;;;;;;;;;5074479;28;20033;-73
2022/03/11 08:28:10;;;;;;;9.07;4.50;;;;;;;;;;5074695;28;20032;-74
2022/03/11 08:30:41;;;;;;;8.23;4.13;;;;;;;;;;5074703;28;20497;-74
2022/03/11 08:33:08;;;;;;;14.63;5.20;;;;;;;;;;5076631;28;20368;-78
2022/03/11 08:35:34;;;;;;;9.48;4.55;;;;;;;;;;5074478;28;20028;-79
2022/03/11 08:38:03;;;;;;;7.82;4.30;;;;;;;;;;5074408;28;20089;-77
2022/03/11 08:40:29;;;;;;;6.47;4.70;;;;;;;;;;5072901;28;20032;-70
2022/03/11 08:42:55;;;;;;;7.32;4.57;;;;;;;;;;5074216;28;20044;-74
2022/03/11 08:45:21;;;;;;;8.25;4.63;;;;;;;;;;5074291;28;20027;-77
2022/03/11 08:47:48;;;;;;;7.90;4.18;;;;;;;;;;5074142;28;20339;-74
2022/03/11 08:50:16;;;;;;;6.22;3.95;;;;;;;;;;5073053;28;20024;-75
2022/03/11 08:52:42;;;;;;;6.65;4.65;;;;;;;;;;5073606;28;20124;-74
2022/03/11 08:55:09;;;;;;;7.35;5.00;;;;;;;;;;5073713;28;20386;-72
2022/03/11 08:57:37;;;;;;;9.00;4.78;;;;;;;;;;5073688;28;20398;-74
2022/03/11 09:00:12;;;;;;;8.00;4.78;;;;;;;;;;5073565;28;20498;-74
2022/03/11 09:02:38;;;;;;;7.93;4.10;;;;;;;;;;5072460;28;20040;-75
2022/03/11 09:05:08;;;;;;;8.15;4.72;;;;;;;;;;5073521;28;20504;-73
2022/03/11 09:07:35;;;;;;;7.20;4.47;;;;;;;;;;5073888;28;20086;-75
2022/03/11 09:10:05;;;;;;;9.00;4.65;;;;;;;;;;5073735;28;20025;-73
2022/03/11 09:12:30;;;;;;;6.70;4.40;;;;;;;;;;5073634;28;20465;-74
2022/03/11 09:14:56;;;;;;;6.78;3.90;;;;;;;;;;5073707;28;20032;-75
2022/03/11 09:17:23;;;;;;;7.95;4.50;;;;;;;;;;5073437;28;20136;-75
2022/03/11 09:19:49;;;;;;;7.32;4.00;;;;;;;;;;5073520;28;20115;-77
2022/03/11 09:22:17;;;;;;;6.80;3.75;;;;;;;;;;5073237;28;20107;-74
2022/03/11 09:24:44;;;;;;;7.13;3.45;;;;;;;;;;5073308;28;20094;-72
2022/03/11 09:27:11;;;;;;;5.43;3.30;;;;;;;;;;5071959;28;20051;-73
2022/03/11 09:29:41;;;;;;;5.15;3.25;;;;;;;;;;5072826;28;20082;-74
2022/03/11 09:32:07;;;;;;;5.70;3.83;;;;;;;;;;5073095;28;20060;-75
2022/03/11 09:34:34;;;;;;;7.47;4.03;;;;;;;;;;5072856;28;20048;-77
2022/03/11 09:37:00;;;;;;;6.18;3.97;;;;;;;;;;5072179;28;20039;-74
2022/03/11 09:39:27;;;;;;;8.00;4.68;;;;;;;;;;5073099;28;20028;-76
2022/03/11 09:41:53;;;;;;;6.35;4.13;;;;;;;;;;5072998;28;20033;-76
2022/03/11 09:44:20;;;;;;;6.97;4.72;;;;;;;;;;5072641;28;20421;-76
2022/03/11 09:46:46;;;;;;;8.65;4.95;;;;;;;;;;5072631;28;20064;-75
2022/03/11 09:49:13;;;;;;;7.28;5.13;;;;;;;;;;5072781;28;20363;-71
2022/03/11 09:51:42;;;;;;;7.28;4.68;;;;;;;;;;5072603;28;20075;-74
2022/03/11 09:54:10;;;;;;;9.20;5.32;;;;;;;;;;5072562;28;20533;-72
2022/03/11 09:56:38;;;;;;;7.53;4.88;;;;;;;;;;5072461;28;20028;-77
2022/03/11 09:59:04;;;;;;;7.40;4.57;;;;;;;;;;5072919;28;20066;-78
2022/03/11 10:01:30;;;;;;;6.65;4.57;;;;;;;;;;5072514;28;20115;-71
2022/03/11 10:03:56;;;;;;;10.38;5.45;;;;;;;;;;5071970;28;20027;-77
2022/03/11 10:06:46;;;;;;;7.22;5.10;;;;;;;;;;5072238;28;20029;-78
2022/03/11 10:09:17;;;;;;;7.97;5.28;;;;;;;;;;5067476;28;20555;-76
2022/03/11 10:11:49;;;;;;;8.10;4.75;;;;;;;;;;5072415;28;20512;-76
2022/03/11 10:14:16;;;;;;;8.73;5.03;;;;;;;;;;5072452;28;20128;-73
2022/03/11 10:16:45;;;;;;;10.13;5.22;;;;;;;;;;5072552;28;20387;-71
2022/03/11 10:19:13;;;;;;;10.52;5.78;;;;;;;;;;5072568;28;20115;-74
2022/03/11 10:21:42;;;;;;;9.35;5.25;;;;;;;;;;5070231;28;20501;-72
2022/03/11 10:24:10;;;;;;;4.60;3.10;;;;;;;;;;5052166;28;20132;-68
2022/03/11 10:26:45;;;;;;;6.22;3.90;;;;;;;;;;5052232;28;20031;-76
2022/03/11 10:29:16;;;;;;;7.05;4.50;;;;;;;;;;5052137;28;20129;-74
2022/03/11 10:31:45;;;;;;;16.27;5.22;;;;;;;;;;5052153;28;20033;-77
2022/03/11 10:34:17;;;;;;;8.70;4.75;;;;;;;;;;5050541;28;20049;-69
2022/03/11 10:36:49;;;;;;;6.45;4.05;;;;;;;;;;5052302;28;20036;-71
2022/03/11 10:39:20;;;;;;;7.70;4.95;;;;;;;;;;5051891;28;20071;-69
2022/03/11 10:41:49;;;;;;;6.95;4.55;;;;;;;;;;5052058;28;20459;-70
2022/03/11 10:44:22;;;;;;;8.57;4.57;;;;;;;;;;5052127;28;20028;-72
2022/03/11 10:46:49;;;;;;;8.80;4.72;;;;;;;;;;5052031;28;20048;-76
2022/03/11 10:49:33;;;;;;;7.18;4.63;;;;;;;;;;5051838;28;20025;-73
2022/03/11 10:52:01;;;;;;;10.00;4.90;;;;;;;;;;5051183;28;20048;-70
2022/03/11 10:54:29;;;;;;;6.13;4.22;;;;;;;;;;5051859;28;20037;-72
2022/03/11 10:57:09;;;;;;;6.43;4.05;;;;;;;;;;5051933;28;20486;-69
2022/03/11 10:59:35;;;;;;;10.23;4.45;;;;;;;;;;5051955;28;20056;-74
2022/03/11 11:02:01;;;;;;;8.77;4.32;;;;;;;;;;5051746;28;20063;-70
2022/03/11 11:04:27;;;;;;;9.30;4.30;;;;;;;;;;5051834;28;20033;-70
2022/03/11 11:06:53;;;;;;;7.70;3.83;;;;;;;;;;5051803;28;20056;-75
2022/03/11 11:09:23;;;;;;;5.80;3.60;;;;;;;;;;5053150;28;20116;-70
2022/03/11 11:11:51;;;;;;;6.32;3.33;;;;;;;;;;5051875;28;20486;-77
2022/03/11 11:14:17;;;;;;;5.57;3.92;;;;;;;;;;5051809;28;20029;-78
2022/03/11 11:16:45;;;;;;;5.05;3.70;;;;;;;;;;5050974;28;20025;-69
2022/03/11 11:19:13;;;;;;;8.38;4.35;;;;;;;;;;5051209;28;20037;-68
2022/03/11 11:21:41;;;;;;;4.78;3.50;;;;;;;;;;5051356;28;20391;-70
2022/03/11 11:24:14;;;;;;;6.00;2.92;;;;;;;;;;5051394;28;20120;-70
2022/03/11 11:26:43;;;;;;;5.22;3.30;;;;;;;;;;5051809;28;20476;-70
2022/03/11 11:29:09;;;;;;;5.90;3.88;;;;;;;;;;5050476;28;20495;-78
2022/03/11 11:31:36;;;;;;;5.65;3.85;;;;;;;;;;5051136;28;20461;-74
2022/03/11 11:34:01;;;;;;;6.07;4.13;;;;;;;;;;5051362;28;20022;-74
2022/03/11 11:36:36;;;;;;;5.95;3.58;;;;;;;;;;5051237;28;20032;-70
2022/03/11 11:39:08;;;;;;;4.68;3.28;;;;;;;;;;5051481;28;20072;-72
2022/03/11 11:41:35;;;;;;;5.63;3.38;;;;;;;;;;5051458;28;20076;-69
2022/03/11 11:44:04;;;;;;;6.40;3.83;;;;;;;;;;5051393;28;20064;-73
2022/03/11 11:46:32;;;;;;;6.63;4.28;;;;;;;;;;5051378;28;20029;-68
2022/03/11 11:49:00;;;;;;;5.55;3.65;;;;;;;;;;5051305;28;20078;-72
2022/03/11 11:51:32;;;;;;;5.50;3.75;;;;;;;;;;5051566;28;20480;-72
2022/03/11 11:54:08;;;;;;;6.88;3.90;;;;;;;;;;5051654;28;20040;-70
2022/03/11 11:56:43;;;;;;;5.32;3.40;;;;;;;;;;5051188;28;20043;-69
2022/03/11 11:59:24;;;;;;;9.10;3.50;;;;;;;;;;5052797;28;20086;-71
2022/03/11 12:01:55;;;;;;;6.18;3.78;;;;;;;;;;5054596;28;20064;-72
2022/03/11 12:04:21;;;;;;;6.07;3.88;;;;;;;;;;5054574;28;20161;-75
2022/03/11 12:07:06;;;;;;;8.15;3.75;;;;;;;;;;5054913;28;20100;-72
2022/03/11 12:09:38;;;;;;;6.72;3.97;;;;;;;;;;5054990;28;20414;-71
2022/03/11 12:12:04;;;;;;;5.68;3.72;;;;;;;;;;5054762;28;20036;-71
2022/03/11 12:14:31;;;;;;;6.45;4.20;;;;;;;;;;5054706;28;20029;-70
2022/03/11 12:17:02;;;;;;;6.15;4.18;;;;;;;;;;5054842;28;20047;-71
2022/03/11 12:19:38;;;;;;;8.02;4.68;;;;;;;;;;5054583;28;20047;-72
2022/03/11 12:22:32;;;;;;;5.68;4.03;;;;;;;;;;5063789;28;20089;-69
2022/03/11 12:24:58;;;;;;;4.95;3.50;;;;;;;;;;5054436;28;20025;-70
2022/03/11 12:28:00;;;;;;;6.85;3.97;;;;;;;;;;5054838;28;20079;-72
2022/03/11 12:30:34;;;;;;;5.80;3.83;;;;;;;;;;5088635;28;20032;-70
2022/03/11 12:33:05;;;;;;;6.05;3.60;;;;;;;;;;5087122;28;20124;-68
2022/03/11 12:35:32;;;;;;;8.93;4.35;;;;;;;;;;5074524;28;20383;-70
2022/03/11 12:37:58;;;;;;;7.68;4.30;;;;;;;;;;5079167;28;20039;-72
2022/03/11 12:40:26;;;;;;;5.43;4.05;;;;;;;;;;5094392;28;20119;-69
2022/03/11 12:43:01;;;;;;;7.50;4.28;;;;;;;;;;5086245;28;20360;-73
2022/03/11 12:45:41;;;;;;;6.90;4.50;;;;;;;;;;5057430;28;20029;-72
2022/03/11 12:48:10;;;;;;;6.07;4.03;;;;;;;;;;5062064;28;20044;-70
2022/03/11 12:50:37;;;;;;;4.78;3.40;;;;;;;;;;5054537;28;20021;-69
2022/03/11 12:53:06;;;;;;;8.02;4.22;;;;;;;;;;5067943;28;20374;-67
2022/03/11 12:55:34;;;;;;;8.02;4.45;;;;;;;;;;5073515;28;20041;-69
2022/03/11 12:58:11;;;;;;;6.30;4.43;;;;;;;;;;5073999;28;20076;-71
2022/03/11 13:00:42;;;;;;;7.55;4.55;;;;;;;;;;5069930;28;20031;-71
2022/03/11 13:03:10;;;;;;;5.72;4.20;;;;;;;;;;5073387;28;20424;-71
2022/03/11 13:05:39;;;;;;;7.75;4.68;;;;;;;;;;5073605;28;20110;-71
2022/03/11 13:08:10;;;;;;;5.85;3.90;;;;;;;;;;5073868;28;20038;-70
2022/03/11 13:10:37;;;;;;;8.90;4.93;;;;;;;;;;5073408;28;20376;-71
2022/03/11 13:13:05;;;;;;;7.85;3.90;;;;;;;;;;5073280;28;20028;-70
2022/03/11 13:15:32;;;;;;;16.73;7.90;;;;;;;;;;5073645;28;20116;-69
2022/03/11 13:18:01;;;;;;;7.93;4.53;;;;;;;;;;5073634;28;20021;-71
2022/03/11 13:20:53;;;;;;;8.18;5.30;;;;;;;;;;5073845;28;20032;-72
2022/03/11 13:23:37;;;;;;;6.00;4.10;;;;;;;;;;5073441;28;20024;-69
2022/03/11 13:26:18;;;;;;;5.18;3.63;;;;;;;;;;5073492;28;20321;-71
2022/03/11 13:28:52;;;;;;;6.03;3.83;;;;;;;;;;5073658;28;20025;-72
2022/03/11 13:31:35;;;;;;;7.18;4.15;;;;;;;;;;5073824;28;20064;-71
2022/03/11 13:34:07;;;;;;;11.80;5.38;;;;;;;;;;5073535;28;20032;-75
2022/03/11 13:36:39;;;;;;;7.28;4.10;;;;;;;;;;5073295;28;20471;-71
2022/03/11 13:39:15;;;;;;;9.68;4.68;;;;;;;;;;5075521;28;20055;-74
2022/03/11 13:41:59;;;;;;;9.43;4.05;;;;;;;;;;5073305;28;20493;-74
2022/03/11 13:44:27;;;;;;;9.80;5.20;;;;;;;;;;5072522;28;20469;-79
2022/03/11 13:47:01;;;;;;;8.15;4.57;;;;;;;;;;5072993;28;20104;-73
2022/03/11 13:49:51;;;;;;;7.10;3.80;;;;;;;;;;5073568;28;20374;-75
2022/03/11 13:52:21;;;;;;;9.15;4.63;;;;;;;;;;5073192;28;20049;-72
2022/03/11 13:55:14;;;;;;;7.07;3.88;;;;;;;;;;5073185;28;20102;-72
2022/03/11 13:57:44;;;;;;;9.77;5.18;;;;;;;;;;5073065;28;20028;-70
2022/03/11 14:00:27;;;;;;;6.35;4.20;;;;;;;;;;5073505;28;20036;-73
2022/03/11 14:02:54;;;;;;;9.97;5.00;;;;;;;;;;5073415;28;20040;-72
2022/03/11 14:05:23;;;;;;;6.28;4.10;;;;;;;;;;5073856;28;20281;-78
2022/03/11 14:08:03;;;;;;;7.25;4.22;;;;;;;;;;5072514;28;20036;-76
2022/03/11 14:10:38;;;;;;;8.23;4.38;;;;;;;;;;5074069;28;20063;-72
2022/03/11 14:13:06;;;;;;;6.65;4.25;;;;;;;;;;5072536;28;20037;-73
2022/03/11 14:15:37;;;;;;;5.55;3.88;;;;;;;;;;5073949;28;20103;-75
2022/03/11 14:18:04;;;;;;;5.13;3.80;;;;;;;;;;5073119;28;20513;-71
2022/03/11 14:20:31;;;;;;;5.95;3.90;;;;;;;;;;5073066;28;20024;-73
2022/03/11 14:22:57;;;;;;;5.43;4.07;;;;;;;;;;5072683;28;20080;-72
2022/03/11 14:25:23;;;;;;;5.65;3.90;;;;;;;;;;5073064;28;20103;-71
2022/03/11 14:27:49;;;;;;;8.52;5.00;;;;;;;;;;5073698;28;20122;-77
2022/03/11 14:30:15;;;;;;;5.85;4.18;;;;;;;;;;5073138;28;20431;-74
2022/03/11 14:32:41;;;;;;;5.00;3.75;;;;;;;;;;5073454;28;20062;-76
2022/03/11 14:35:07;;;;;;;8.80;5.15;;;;;;;;;;5073486;28;20035;-69
2022/03/11 14:37:35;;;;;;;7.07;3.92;;;;;;;;;;5073073;28;20135;-74
2022/03/11 14:40:03;;;;;;;5.75;3.67;;;;;;;;;;5072986;28;20028;-78